sensor_id;sensor_type;location;lat;lon;timestamp;P1;durP1;ratioP1;P2;durP2;ratioP2
23280;SDS011;11809;56.390;-3.266;2022-09-20T00:03:40;2.30;;;2.08;;
23280;SDS011;11809;56.390;-3.266;2022-09-20T00:06:09;4.22;;;2.00;;
23280;SDS011;11809;56.390;-3.266;2022-09-20T00:08:38;4.00;;;2.13;;
23280;SDS011;11809;56.390;-3.266;2022-09-20T00:11:07;3.35;;;1.90;;
23280;SDS011;11809;56.390;-3.266;2022-09-20T00:13:37;2.60;;;2.10;;
23280;SDS011;11809;56.390;-3.266;2022-09-20T00:16:06;4.10;;;2.05;;
23280;SDS011;11809;56.390;-3.266;2022-09-20T00:18:36;2.00;;;1.75;;
23280;SDS011;11809;56.390;-3.266;2022-09-20T00:21:03;2.85;;;2.00;;
23280;SDS011;11809;56.390;-3.266;2022-09-20T00:23:30;2.60;;;2.00;;
23280;SDS011;11809;56.390;-3.266;2022-09-20T00:26:02;2.88;;;1.92;;
23280;SDS011;11809;56.390;-3.266;2022-09-20T00:28:30;2.63;;;1.70;;
23280;SDS011;11809;56.390;-3.266;2022-09-20T00:30:58;2.17;;;1.70;;
23280;SDS011;11809;56.390;-3.266;2022-09-20T00:33:24;2.40;;;1.88;;
23280;SDS011;11809;56.390;-3.266;2022-09-20T00:36:15;3.17;;;1.77;;
23280;SDS011;11809;56.390;-3.266;2022-09-20T00:38:42;3.83;;;1.80;;
23280;SDS011;11809;56.390;-3.266;2022-09-20T00:41:09;1.70;;;1.60;;
23280;SDS011;11809;56.390;-3.266;2022-09-20T00:43:40;1.98;;;1.77;;
23280;SDS011;11809;56.390;-3.266;2022-09-20T00:46:18;3.05;;;1.92;;
23280;SDS011;11809;56.390;-3.266;2022-09-20T00:49:15;2.85;;;2.03;;
23280;SDS011;11809;56.390;-3.266;2022-09-20T00:51:47;2.10;;;1.88;;
23280;SDS011;11809;56.390;-3.266;2022-09-20T00:54:18;2.20;;;1.73;;
23280;SDS011;11809;56.390;-3.266;2022-09-20T00:56:46;2.53;;;1.85;;
23280;SDS011;11809;56.390;-3.266;2022-09-20T00:59:33;1.88;;;1.60;;
23280;SDS011;11809;56.390;-3.266;2022-09-20T01:04:31;2.20;;;1.70;;
23280;SDS011;11809;56.390;-3.266;2022-09-20T01:07:01;2.35;;;2.00;;
23280;SDS011;11809;56.390;-3.266;2022-09-20T01:09:31;2.03;;;1.75;;
23280;SDS011;11809;56.390;-3.266;2022-09-20T01:11:57;2.17;;;1.88;;
23280;SDS011;11809;56.390;-3.266;2022-09-20T01:14:29;2.28;;;2.08;;
23280;SDS011;11809;56.390;-3.266;2022-09-20T01:16:56;1.95;;;1.58;;
23280;SDS011;11809;56.390;-3.266;2022-09-20T01:19:33;2.28;;;1.98;;
23280;SDS011;11809;56.390;-3.266;2022-09-20T01:22:24;2.20;;;2.00;;
23280;SDS011;11809;56.390;-3.266;2022-09-20T01:28:04;1.65;;;1.55;;
23280;SDS011;11809;56.390;-3.266;2022-09-20T01:30:39;1.77;;;1.67;;
23280;SDS011;11809;56.390;-3.266;2022-09-20T01:33:29;1.88;;;1.70;;
23280;SDS011;11809;56.390;-3.266;2022-09-20T01:36:05;1.80;;;1.70;;
23280;SDS011;11809;56.390;-3.266;2022-09-20T01:43:52;2.20;;;2.00;;
23280;SDS011;11809;56.390;-3.266;2022-09-20T01:46:33;2.10;;;1.87;;
23280;SDS011;11809;56.390;-3.266;2022-09-20T02:17:17;2.13;;;1.90;;
23280;SDS011;11809;56.390;-3.266;2022-09-20T02:19:53;2.30;;;1.90;;
23280;SDS011;11809;56.390;-3.266;2022-09-20T02:22:30;2.17;;;1.80;;
23280;SDS011;11809;56.390;-3.266;2022-09-20T02:25:37;2.08;;;1.88;;
23280;SDS011;11809;56.390;-3.266;2022-09-20T02:28:54;2.25;;;1.83;;
23280;SDS011;11809;56.390;-3.266;2022-09-20T02:39:55;2.00;;;1.80;;
23280;SDS011;11809;56.390;-3.266;2022-09-20T02:42:28;2.08;;;1.85;;
23280;SDS011;11809;56.390;-3.266;2022-09-20T02:45:39;2.85;;;1.88;;
23280;SDS011;11809;56.390;-3.266;2022-09-20T02:48:26;1.95;;;1.70;;
23280;SDS011;11809;56.390;-3.266;2022-09-20T02:51:13;1.80;;;1.70;;
23280;SDS011;11809;56.390;-3.266;2022-09-20T03:02:34;2.13;;;1.90;;
23280;SDS011;11809;56.390;-3.266;2022-09-20T03:05:57;2.38;;;2.13;;
23280;SDS011;11809;56.390;-3.266;2022-09-20T03:14:00;2.03;;;1.90;;
23280;SDS011;11809;56.390;-3.266;2022-09-20T03:25:25;2.33;;;1.95;;
23280;SDS011;11809;56.390;-3.266;2022-09-20T03:42:22;2.20;;;2.00;;
23280;SDS011;11809;56.390;-3.266;2022-09-20T03:49:06;2.25;;;2.10;;
23280;SDS011;11809;56.390;-3.266;2022-09-20T03:51:03;1.92;;;1.77;;
23280;SDS011;11809;56.390;-3.266;2022-09-20T04:14:56;2.15;;;1.92;;
23280;SDS011;11809;56.390;-3.266;2022-09-20T04:20:16;2.15;;;1.95;;
23280;SDS011;11809;56.390;-3.266;2022-09-20T04:22:50;2.15;;;1.95;;
23280;SDS011;11809;56.390;-3.266;2022-09-20T04:25:22;2.83;;;2.00;;
23280;SDS011;11809;56.390;-3.266;2022-09-20T04:27:56;2.00;;;1.90;;
23280;SDS011;11809;56.390;-3.266;2022-09-20T04:30:42;2.25;;;2.10;;
23280;SDS011;11809;56.390;-3.266;2022-09-20T04:33:14;2.10;;;2.00;;
23280;SDS011;11809;56.390;-3.266;2022-09-20T04:38:45;2.15;;;1.98;;
23280;SDS011;11809;56.390;-3.266;2022-09-20T04:55:51;3.28;;;2.05;;
23280;SDS011;11809;56.390;-3.266;2022-09-20T05:42:54;3.25;;;2.10;;
23280;SDS011;11809;56.390;-3.266;2022-09-20T06:00:28;3.58;;;2.17;;
23280;SDS011;11809;56.390;-3.266;2022-09-20T06:08:37;4.78;;;2.25;;
23280;SDS011;11809;56.390;-3.266;2022-09-20T06:16:50;15.32;;;2.70;;
23280;SDS011;11809;56.390;-3.266;2022-09-20T06:21:55;8.30;;;2.50;;
23280;SDS011;11809;56.390;-3.266;2022-09-20T06:27:25;10.85;;;2.78;;
23280;SDS011;11809;56.390;-3.266;2022-09-20T06:29:57;10.45;;;3.30;;
23280;SDS011;11809;56.390;-3.266;2022-09-20T06:32:27;8.38;;;3.60;;
23280;SDS011;11809;56.390;-3.266;2022-09-20T06:34:54;9.43;;;3.83;;
23280;SDS011;11809;56.390;-3.266;2022-09-20T06:37:30;10.40;;;3.83;;
23280;SDS011;11809;56.390;-3.266;2022-09-20T06:40:43;9.48;;;3.67;;
23280;SDS011;11809;56.390;-3.266;2022-09-20T06:43:34;11.57;;;3.63;;
23280;SDS011;11809;56.390;-3.266;2022-09-20T06:46:02;6.13;;;3.67;;
23280;SDS011;11809;56.390;-3.266;2022-09-20T06:48:29;6.20;;;3.30;;
23280;SDS011;11809;56.390;-3.266;2022-09-20T06:50:56;6.82;;;3.15;;
23280;SDS011;11809;56.390;-3.266;2022-09-20T06:53:27;7.10;;;3.00;;
23280;SDS011;11809;56.390;-3.266;2022-09-20T06:55:56;4.65;;;3.05;;
23280;SDS011;11809;56.390;-3.266;2022-09-20T06:58:23;7.82;;;2.90;;
23280;SDS011;11809;56.390;-3.266;2022-09-20T07:00:50;27.67;;;4.00;;
23280;SDS011;11809;56.390;-3.266;2022-09-20T07:03:19;8.40;;;2.83;;
23280;SDS011;11809;56.390;-3.266;2022-09-20T07:05:46;5.80;;;2.92;;
23280;SDS011;11809;56.390;-3.266;2022-09-20T07:08:14;12.40;;;3.17;;
23280;SDS011;11809;56.390;-3.266;2022-09-20T07:10:42;6.03;;;2.55;;
23280;SDS011;11809;56.390;-3.266;2022-09-20T07:13:09;5.93;;;3.00;;
23280;SDS011;11809;56.390;-3.266;2022-09-20T07:15:39;8.75;;;2.70;;
23280;SDS011;11809;56.390;-3.266;2022-09-20T07:18:06;6.75;;;2.67;;
23280;SDS011;11809;56.390;-3.266;2022-09-20T07:20:33;6.88;;;2.80;;
23280;SDS011;11809;56.390;-3.266;2022-09-20T07:23:01;6.35;;;2.63;;
23280;SDS011;11809;56.390;-3.266;2022-09-20T07:25:29;12.07;;;3.00;;
23280;SDS011;11809;56.390;-3.266;2022-09-20T07:27:57;5.65;;;2.58;;
23280;SDS011;11809;56.390;-3.266;2022-09-20T07:30:24;4.05;;;2.50;;
23280;SDS011;11809;56.390;-3.266;2022-09-20T07:32:51;9.95;;;2.65;;
23280;SDS011;11809;56.390;-3.266;2022-09-20T07:35:18;3.45;;;2.35;;
23280;SDS011;11809;56.390;-3.266;2022-09-20T07:37:45;7.25;;;2.50;;
23280;SDS011;11809;56.390;-3.266;2022-09-20T07:40:13;5.13;;;2.30;;
23280;SDS011;11809;56.390;-3.266;2022-09-20T07:42:40;7.57;;;3.22;;
23280;SDS011;11809;56.390;-3.266;2022-09-20T07:45:07;5.85;;;2.60;;
23280;SDS011;11809;56.390;-3.266;2022-09-20T07:47:34;4.32;;;2.47;;
23280;SDS011;11809;56.390;-3.266;2022-09-20T07:50:02;5.43;;;2.90;;
23280;SDS011;11809;56.390;-3.266;2022-09-20T07:52:29;5.97;;;2.70;;
23280;SDS011;11809;56.390;-3.266;2022-09-20T07:54:56;4.32;;;2.40;;
23280;SDS011;11809;56.390;-3.266;2022-09-20T07:57:24;6.07;;;2.30;;
23280;SDS011;11809;56.390;-3.266;2022-09-20T07:59:51;7.78;;;2.95;;
23280;SDS011;11809;56.390;-3.266;2022-09-20T08:02:18;3.63;;;2.42;;
23280;SDS011;11809;56.390;-3.266;2022-09-20T08:04:45;5.18;;;2.95;;
23280;SDS011;11809;56.390;-3.266;2022-09-20T08:07:15;4.63;;;2.40;;
23280;SDS011;11809;56.390;-3.266;2022-09-20T08:09:42;5.63;;;2.40;;
23280;SDS011;11809;56.390;-3.266;2022-09-20T08:12:10;3.10;;;2.42;;
23280;SDS011;11809;56.390;-3.266;2022-09-20T08:14:58;3.08;;;2.33;;
23280;SDS011;11809;56.390;-3.266;2022-09-20T08:17:26;4.97;;;2.55;;
23280;SDS011;11809;56.390;-3.266;2022-09-20T08:19:53;3.63;;;2.50;;
23280;SDS011;11809;56.390;-3.266;2022-09-20T08:22:20;4.78;;;2.58;;
23280;SDS011;11809;56.390;-3.266;2022-09-20T08:24:48;2.50;;;2.30;;
23280;SDS011;11809;56.390;-3.266;2022-09-20T08:27:17;2.88;;;2.40;;
23280;SDS011;11809;56.390;-3.266;2022-09-20T08:29:44;2.45;;;2.13;;
23280;SDS011;11809;56.390;-3.266;2022-09-20T08:32:11;2.78;;;2.25;;
23280;SDS011;11809;56.390;-3.266;2022-09-20T08:34:38;4.65;;;2.40;;
23280;SDS011;11809;56.390;-3.266;2022-09-20T08:37:06;3.75;;;2.45;;
23280;SDS011;11809;56.390;-3.266;2022-09-20T08:39:33;2.45;;;2.10;;
23280;SDS011;11809;56.390;-3.266;2022-09-20T08:42:26;4.18;;;2.40;;
23280;SDS011;11809;56.390;-3.266;2022-09-20T08:45:17;3.55;;;2.60;;
23280;SDS011;11809;56.390;-3.266;2022-09-20T08:47:59;4.35;;;2.20;;
23280;SDS011;11809;56.390;-3.266;2022-09-20T08:50:31;3.30;;;2.30;;
23280;SDS011;11809;56.390;-3.266;2022-09-20T08:52:59;2.08;;;1.90;;
23280;SDS011;11809;56.390;-3.266;2022-09-20T08:55:31;4.70;;;2.42;;
23280;SDS011;11809;56.390;-3.266;2022-09-20T08:58:02;6.05;;;2.50;;
23280;SDS011;11809;56.390;-3.266;2022-09-20T09:00:34;3.95;;;2.17;;
23280;SDS011;11809;56.390;-3.266;2022-09-20T09:03:05;5.38;;;2.22;;
23280;SDS011;11809;56.390;-3.266;2022-09-20T09:05:50;3.15;;;1.98;;
23280;SDS011;11809;56.390;-3.266;2022-09-20T09:10:48;4.30;;;2.30;;
23280;SDS011;11809;56.390;-3.266;2022-09-20T09:13:23;3.75;;;2.40;;
23280;SDS011;11809;56.390;-3.266;2022-09-20T09:15:58;3.85;;;2.15;;
23280;SDS011;11809;56.390;-3.266;2022-09-20T09:18:32;3.80;;;2.42;;
23280;SDS011;11809;56.390;-3.266;2022-09-20T09:21:02;5.78;;;2.50;;
23280;SDS011;11809;56.390;-3.266;2022-09-20T09:23:36;17.02;;;2.95;;
23280;SDS011;11809;56.390;-3.266;2022-09-20T09:26:17;6.93;;;2.67;;
23280;SDS011;11809;56.390;-3.266;2022-09-20T09:34:28;5.43;;;2.88;;
23280;SDS011;11809;56.390;-3.266;2022-09-20T09:36:55;5.13;;;2.33;;
23280;SDS011;11809;56.390;-3.266;2022-09-20T09:41:53;3.00;;;2.40;;
23280;SDS011;11809;56.390;-3.266;2022-09-20T09:44:24;6.88;;;2.50;;
23280;SDS011;11809;56.390;-3.266;2022-09-20T09:46:56;5.72;;;2.72;;
23280;SDS011;11809;56.390;-3.266;2022-09-20T09:49:26;9.13;;;2.65;;
23280;SDS011;11809;56.390;-3.266;2022-09-20T09:52:11;5.60;;;2.17;;
23280;SDS011;11809;56.390;-3.266;2022-09-20T09:54:51;5.22;;;2.40;;
23280;SDS011;11809;56.390;-3.266;2022-09-20T10:02:55;4.85;;;2.30;;
23280;SDS011;11809;56.390;-3.266;2022-09-20T10:05:29;2.88;;;2.60;;
23280;SDS011;11809;56.390;-3.266;2022-09-20T10:21:54;4.40;;;2.50;;
23280;SDS011;11809;56.390;-3.266;2022-09-20T10:32:58;3.17;;;2.60;;
23280;SDS011;11809;56.390;-3.266;2022-09-20T10:38:16;7.88;;;3.20;;
23280;SDS011;11809;56.390;-3.266;2022-09-20T10:55:25;9.27;;;3.80;;
23280;SDS011;11809;56.390;-3.266;2022-09-20T11:01:00;7.30;;;3.10;;
23280;SDS011;11809;56.390;-3.266;2022-09-20T11:08:48;8.02;;;3.58;;
23280;SDS011;11809;56.390;-3.266;2022-09-20T11:11:33;6.40;;;3.50;;
23280;SDS011;11809;56.390;-3.266;2022-09-20T11:14:11;6.38;;;3.45;;
23280;SDS011;11809;56.390;-3.266;2022-09-20T11:16:46;9.20;;;3.55;;
23280;SDS011;11809;56.390;-3.266;2022-09-20T11:19:30;3.83;;;3.25;;
23280;SDS011;11809;56.390;-3.266;2022-09-20T11:29:51;6.85;;;3.50;;
23280;SDS011;11809;56.390;-3.266;2022-09-20T11:32:33;4.25;;;3.85;;
23280;SDS011;11809;56.390;-3.266;2022-09-20T11:37:39;7.28;;;3.80;;
23280;SDS011;11809;56.390;-3.266;2022-09-20T11:42:45;4.85;;;3.50;;
23280;SDS011;11809;56.390;-3.266;2022-09-20T11:45:13;5.20;;;3.35;;
23280;SDS011;11809;56.390;-3.266;2022-09-20T11:47:45;5.60;;;3.78;;
23280;SDS011;11809;56.390;-3.266;2022-09-20T11:58:48;4.90;;;4.07;;
23280;SDS011;11809;56.390;-3.266;2022-09-20T12:01:30;6.70;;;3.83;;
23280;SDS011;11809;56.390;-3.266;2022-09-20T12:07:02;5.45;;;3.75;;
23280;SDS011;11809;56.390;-3.266;2022-09-20T12:09:38;4.65;;;3.65;;
23280;SDS011;11809;56.390;-3.266;2022-09-20T12:12:15;5.82;;;3.90;;
23280;SDS011;11809;56.390;-3.266;2022-09-20T12:15:04;5.10;;;3.60;;
23280;SDS011;11809;56.390;-3.266;2022-09-20T12:28:40;4.53;;;3.63;;
23280;SDS011;11809;56.390;-3.266;2022-09-20T12:44:22;3.75;;;2.90;;
23280;SDS011;11809;56.390;-3.266;2022-09-20T12:47:21;4.05;;;3.08;;
23280;SDS011;11809;56.390;-3.266;2022-09-20T12:49:54;31.30;;;4.72;;
23280;SDS011;11809;56.390;-3.266;2022-09-20T12:55:40;6.35;;;2.90;;
23280;SDS011;11809;56.390;-3.266;2022-09-20T13:24:27;4.57;;;2.50;;
23280;SDS011;11809;56.390;-3.266;2022-09-20T13:27:14;4.10;;;2.67;;
23280;SDS011;11809;56.390;-3.266;2022-09-20T13:29:44;4.32;;;2.33;;
23280;SDS011;11809;56.390;-3.266;2022-09-20T13:32:28;5.78;;;2.47;;
23280;SDS011;11809;56.390;-3.266;2022-09-20T13:37:36;5.20;;;2.85;;
23280;SDS011;11809;56.390;-3.266;2022-09-20T13:40:25;11.02;;;3.17;;
23280;SDS011;11809;56.390;-3.266;2022-09-20T13:42:57;2.83;;;2.40;;
23280;SDS011;11809;56.390;-3.266;2022-09-20T13:45:49;4.95;;;2.65;;
23280;SDS011;11809;56.390;-3.266;2022-09-20T13:48:19;3.42;;;2.40;;
23280;SDS011;11809;56.390;-3.266;2022-09-20T13:50:53;3.17;;;2.30;;
23280;SDS011;11809;56.390;-3.266;2022-09-20T13:53:22;4.07;;;2.20;;
23280;SDS011;11809;56.390;-3.266;2022-09-20T13:56:24;2.90;;;2.40;;
23280;SDS011;11809;56.390;-3.266;2022-09-20T13:58:54;3.15;;;2.30;;
23280;SDS011;11809;56.390;-3.266;2022-09-20T14:01:30;3.77;;;2.40;;
23280;SDS011;11809;56.390;-3.266;2022-09-20T14:04:02;3.58;;;2.30;;
23280;SDS011;11809;56.390;-3.266;2022-09-20T14:06:32;3.13;;;1.90;;
23280;SDS011;11809;56.390;-3.266;2022-09-20T14:09:01;3.88;;;2.10;;
23280;SDS011;11809;56.390;-3.266;2022-09-20T14:11:36;4.10;;;2.30;;
23280;SDS011;11809;56.390;-3.266;2022-09-20T14:14:04;4.95;;;2.03;;
23280;SDS011;11809;56.390;-3.266;2022-09-20T14:16:34;4.78;;;2.40;;
23280;SDS011;11809;56.390;-3.266;2022-09-20T14:19:05;4.55;;;2.03;;
23280;SDS011;11809;56.390;-3.266;2022-09-20T14:21:34;8.50;;;2.47;;
23280;SDS011;11809;56.390;-3.266;2022-09-20T14:26:40;3.53;;;2.20;;
23280;SDS011;11809;56.390;-3.266;2022-09-20T14:29:26;2.00;;;1.80;;
23280;SDS011;11809;56.390;-3.266;2022-09-20T14:37:35;2.00;;;1.90;;
23280;SDS011;11809;56.390;-3.266;2022-09-20T14:40:43;5.10;;;2.13;;
23280;SDS011;11809;56.390;-3.266;2022-09-20T14:43:29;2.28;;;1.83;;
23280;SDS011;11809;56.390;-3.266;2022-09-20T14:45:58;2.03;;;1.88;;
23280;SDS011;11809;56.390;-3.266;2022-09-20T14:53:42;3.75;;;2.05;;
23280;SDS011;11809;56.390;-3.266;2022-09-20T14:56:15;3.50;;;1.67;;
23280;SDS011;11809;56.390;-3.266;2022-09-20T15:01:40;1.83;;;1.50;;
23280;SDS011;11809;56.390;-3.266;2022-09-20T15:04:20;5.85;;;1.70;;
23280;SDS011;11809;56.390;-3.266;2022-09-20T15:06:49;1.75;;;1.65;;
23280;SDS011;11809;56.390;-3.266;2022-09-20T15:09:17;1.70;;;1.60;;
23280;SDS011;11809;56.390;-3.266;2022-09-20T15:11:46;4.50;;;1.58;;
23280;SDS011;11809;56.390;-3.266;2022-09-20T15:14:24;2.15;;;1.65;;
23280;SDS011;11809;56.390;-3.266;2022-09-20T15:16:51;1.55;;;1.40;;
23280;SDS011;11809;56.390;-3.266;2022-09-20T15:19:18;3.25;;;1.70;;
23280;SDS011;11809;56.390;-3.266;2022-09-20T15:21:45;2.13;;;1.70;;
23280;SDS011;11809;56.390;-3.266;2022-09-20T15:24:12;2.85;;;1.50;;
23280;SDS011;11809;56.390;-3.266;2022-09-20T15:26:39;8.30;;;1.70;;
23280;SDS011;11809;56.390;-3.266;2022-09-20T15:29:07;6.13;;;1.58;;
23280;SDS011;11809;56.390;-3.266;2022-09-20T15:31:39;6.55;;;1.98;;
23280;SDS011;11809;56.390;-3.266;2022-09-20T15:34:06;6.18;;;1.50;;
23280;SDS011;11809;56.390;-3.266;2022-09-20T15:36:34;11.30;;;1.95;;
23280;SDS011;11809;56.390;-3.266;2022-09-20T15:39:03;3.80;;;1.83;;
23280;SDS011;11809;56.390;-3.266;2022-09-20T15:41:30;5.07;;;1.60;;
23280;SDS011;11809;56.390;-3.266;2022-09-20T15:43:58;7.82;;;1.92;;
23280;SDS011;11809;56.390;-3.266;2022-09-20T15:46:25;3.22;;;1.60;;
23280;SDS011;11809;56.390;-3.266;2022-09-20T15:48:52;5.72;;;2.00;;
23280;SDS011;11809;56.390;-3.266;2022-09-20T15:51:20;3.28;;;1.70;;
23280;SDS011;11809;56.390;-3.266;2022-09-20T15:53:57;3.88;;;1.67;;
23280;SDS011;11809;56.390;-3.266;2022-09-20T15:56:28;3.85;;;1.60;;
23280;SDS011;11809;56.390;-3.266;2022-09-20T15:58:58;2.53;;;1.55;;
23280;SDS011;11809;56.390;-3.266;2022-09-20T16:01:33;8.57;;;1.65;;
23280;SDS011;11809;56.390;-3.266;2022-09-20T16:04:17;5.85;;;1.83;;
23280;SDS011;11809;56.390;-3.266;2022-09-20T16:06:46;6.72;;;1.85;;
23280;SDS011;11809;56.390;-3.266;2022-09-20T16:09:15;19.65;;;2.10;;
23280;SDS011;11809;56.390;-3.266;2022-09-20T16:11:42;14.30;;;2.30;;
23280;SDS011;11809;56.390;-3.266;2022-09-20T16:14:09;13.90;;;2.22;;
23280;SDS011;11809;56.390;-3.266;2022-09-20T16:16:36;8.60;;;2.00;;
23280;SDS011;11809;56.390;-3.266;2022-09-20T16:19:06;9.95;;;1.95;;
23280;SDS011;11809;56.390;-3.266;2022-09-20T16:21:50;9.82;;;2.53;;
23280;SDS011;11809;56.390;-3.266;2022-09-20T16:24:25;29.05;;;3.05;;
23280;SDS011;11809;56.390;-3.266;2022-09-20T16:26:54;8.70;;;1.70;;
23280;SDS011;11809;56.390;-3.266;2022-09-20T16:29:21;9.93;;;1.92;;
23280;SDS011;11809;56.390;-3.266;2022-09-20T16:31:51;12.48;;;1.88;;
23280;SDS011;11809;56.390;-3.266;2022-09-20T16:34:20;14.90;;;2.10;;
23280;SDS011;11809;56.390;-3.266;2022-09-20T16:36:48;5.82;;;1.77;;
23280;SDS011;11809;56.390;-3.266;2022-09-20T16:39:17;8.10;;;2.00;;
23280;SDS011;11809;56.390;-3.266;2022-09-20T16:41:46;12.45;;;2.03;;
23280;SDS011;11809;56.390;-3.266;2022-09-20T16:44:14;14.32;;;1.95;;
23280;SDS011;11809;56.390;-3.266;2022-09-20T16:46:41;6.82;;;1.60;;
23280;SDS011;11809;56.390;-3.266;2022-09-20T16:49:10;5.35;;;1.52;;
23280;SDS011;11809;56.390;-3.266;2022-09-20T16:51:39;6.05;;;1.30;;
23280;SDS011;11809;56.390;-3.266;2022-09-20T16:54:09;4.03;;;1.50;;
23280;SDS011;11809;56.390;-3.266;2022-09-20T16:56:38;5.35;;;1.60;;
23280;SDS011;11809;56.390;-3.266;2022-09-20T16:59:07;3.33;;;1.58;;
23280;SDS011;11809;56.390;-3.266;2022-09-20T17:01:36;3.65;;;1.40;;
23280;SDS011;11809;56.390;-3.266;2022-09-20T17:04:04;22.02;;;1.90;;
23280;SDS011;11809;56.390;-3.266;2022-09-20T17:06:35;10.63;;;1.77;;
23280;SDS011;11809;56.390;-3.266;2022-09-20T17:09:04;3.65;;;1.80;;
23280;SDS011;11809;56.390;-3.266;2022-09-20T17:11:33;7.80;;;1.40;;
23280;SDS011;11809;56.390;-3.266;2022-09-20T17:14:03;4.18;;;1.60;;
23280;SDS011;11809;56.390;-3.266;2022-09-20T17:16:31;15.60;;;2.03;;
23280;SDS011;11809;56.390;-3.266;2022-09-20T17:19:01;20.17;;;2.15;;
23280;SDS011;11809;56.390;-3.266;2022-09-20T17:21:33;18.92;;;1.85;;
23280;SDS011;11809;56.390;-3.266;2022-09-20T17:24:02;13.85;;;2.03;;
23280;SDS011;11809;56.390;-3.266;2022-09-20T17:26:33;8.32;;;1.52;;
23280;SDS011;11809;56.390;-3.266;2022-09-20T17:29:13;9.48;;;2.30;;
23280;SDS011;11809;56.390;-3.266;2022-09-20T17:31:44;7.03;;;1.80;;
23280;SDS011;11809;56.390;-3.266;2022-09-20T17:34:20;12.77;;;2.35;;
23280;SDS011;11809;56.390;-3.266;2022-09-20T17:36:48;12.18;;;3.22;;
23280;SDS011;11809;56.390;-3.266;2022-09-20T17:41:47;26.00;;;7.72;;
23280;SDS011;11809;56.390;-3.266;2022-09-20T17:44:17;33.30;;;10.60;;
23280;SDS011;11809;56.390;-3.266;2022-09-20T17:46:45;34.22;;;12.05;;
23280;SDS011;11809;56.390;-3.266;2022-09-20T17:49:18;30.77;;;12.93;;
23280;SDS011;11809;56.390;-3.266;2022-09-20T17:51:48;35.10;;;13.88;;
23280;SDS011;11809;56.390;-3.266;2022-09-20T17:54:17;34.78;;;12.95;;
23280;SDS011;11809;56.390;-3.266;2022-09-20T17:56:48;34.85;;;14.15;;
23280;SDS011;11809;56.390;-3.266;2022-09-20T17:59:16;37.03;;;12.95;;
23280;SDS011;11809;56.390;-3.266;2022-09-20T18:01:45;34.78;;;13.68;;
23280;SDS011;11809;56.390;-3.266;2022-09-20T18:04:14;37.85;;;14.70;;
23280;SDS011;11809;56.390;-3.266;2022-09-20T18:06:45;31.58;;;13.13;;
23280;SDS011;11809;56.390;-3.266;2022-09-20T18:09:15;34.63;;;12.70;;
23280;SDS011;11809;56.390;-3.266;2022-09-20T18:11:44;28.90;;;12.05;;
23280;SDS011;11809;56.390;-3.266;2022-09-20T18:14:19;27.40;;;11.80;;
23280;SDS011;11809;56.390;-3.266;2022-09-20T18:16:52;25.67;;;11.27;;
23280;SDS011;11809;56.390;-3.266;2022-09-20T18:19:25;21.08;;;10.60;;
23280;SDS011;11809;56.390;-3.266;2022-09-20T18:22:02;22.55;;;10.10;;
23280;SDS011;11809;56.390;-3.266;2022-09-20T18:24:29;21.27;;;8.63;;
23280;SDS011;11809;56.390;-3.266;2022-09-20T18:26:57;24.45;;;8.43;;
23280;SDS011;11809;56.390;-3.266;2022-09-20T18:29:26;28.90;;;9.23;;
23280;SDS011;11809;56.390;-3.266;2022-09-20T18:31:54;19.50;;;8.55;;
23280;SDS011;11809;56.390;-3.266;2022-09-20T18:34:23;17.73;;;8.13;;
23280;SDS011;11809;56.390;-3.266;2022-09-20T18:36:53;16.55;;;7.82;;
23280;SDS011;11809;56.390;-3.266;2022-09-20T18:39:39;14.82;;;6.85;;
23280;SDS011;11809;56.390;-3.266;2022-09-20T18:42:06;17.55;;;6.72;;
23280;SDS011;11809;56.390;-3.266;2022-09-20T18:44:34;16.98;;;7.18;;
23280;SDS011;11809;56.390;-3.266;2022-09-20T18:47:02;16.27;;;7.30;;
23280;SDS011;11809;56.390;-3.266;2022-09-20T18:49:31;17.83;;;8.20;;
23280;SDS011;11809;56.390;-3.266;2022-09-20T18:51:58;26.27;;;6.95;;
23280;SDS011;11809;56.390;-3.266;2022-09-20T18:54:27;18.05;;;6.53;;
23280;SDS011;11809;56.390;-3.266;2022-09-20T18:56:59;13.00;;;6.53;;
23280;SDS011;11809;56.390;-3.266;2022-09-20T18:59:29;15.30;;;5.53;;
23280;SDS011;11809;56.390;-3.266;2022-09-20T19:10:10;12.05;;;4.75;;
23280;SDS011;11809;56.390;-3.266;2022-09-20T19:13:05;13.73;;;5.10;;
23280;SDS011;11809;56.390;-3.266;2022-09-20T19:15:53;11.23;;;5.18;;
23280;SDS011;11809;56.390;-3.266;2022-09-20T19:24:21;10.35;;;4.90;;
23280;SDS011;11809;56.390;-3.266;2022-09-20T19:27:01;16.95;;;4.70;;
23280;SDS011;11809;56.390;-3.266;2022-09-20T19:29:29;8.65;;;4.10;;
23280;SDS011;11809;56.390;-3.266;2022-09-20T19:31:57;12.98;;;4.43;;
23280;SDS011;11809;56.390;-3.266;2022-09-20T19:34:27;9.50;;;4.60;;
23280;SDS011;11809;56.390;-3.266;2022-09-20T19:40:33;8.88;;;3.78;;
23280;SDS011;11809;56.390;-3.266;2022-09-20T19:42:47;10.38;;;4.18;;
23280;SDS011;11809;56.390;-3.266;2022-09-20T19:48:30;7.35;;;3.58;;
23280;SDS011;11809;56.390;-3.266;2022-09-20T19:51:09;5.32;;;3.83;;
23280;SDS011;11809;56.390;-3.266;2022-09-20T19:53:38;9.10;;;3.55;;
23280;SDS011;11809;56.390;-3.266;2022-09-20T19:56:17;6.50;;;3.60;;
23280;SDS011;11809;56.390;-3.266;2022-09-20T19:58:50;4.65;;;2.78;;
23280;SDS011;11809;56.390;-3.266;2022-09-20T20:01:19;10.07;;;3.13;;
23280;SDS011;11809;56.390;-3.266;2022-09-20T20:03:48;9.55;;;3.15;;
23280;SDS011;11809;56.390;-3.266;2022-09-20T20:12:12;5.25;;;2.95;;
23280;SDS011;11809;56.390;-3.266;2022-09-20T20:17:59;9.18;;;2.85;;
23280;SDS011;11809;56.390;-3.266;2022-09-20T20:20:38;4.72;;;3.00;;
23280;SDS011;11809;56.390;-3.266;2022-09-20T20:28:46;5.47;;;3.03;;
23280;SDS011;11809;56.390;-3.266;2022-09-20T20:31:13;6.35;;;3.00;;
23280;SDS011;11809;56.390;-3.266;2022-09-20T20:33:41;3.85;;;2.60;;
23280;SDS011;11809;56.390;-3.266;2022-09-20T20:36:09;4.57;;;2.45;;
23280;SDS011;11809;56.390;-3.266;2022-09-20T20:38:38;5.43;;;2.83;;
23280;SDS011;11809;56.390;-3.266;2022-09-20T20:41:07;4.78;;;2.53;;
23280;SDS011;11809;56.390;-3.266;2022-09-20T20:43:39;4.38;;;2.70;;
23280;SDS011;11809;56.390;-3.266;2022-09-20T20:46:10;8.00;;;2.80;;
23280;SDS011;11809;56.390;-3.266;2022-09-20T20:48:44;11.35;;;3.08;;
23280;SDS011;11809;56.390;-3.266;2022-09-20T20:51:17;5.00;;;2.30;;
23280;SDS011;11809;56.390;-3.266;2022-09-20T20:53:50;4.22;;;2.30;;
23280;SDS011;11809;56.390;-3.266;2022-09-20T20:56:19;8.50;;;2.60;;
23280;SDS011;11809;56.390;-3.266;2022-09-20T20:58:53;6.25;;;2.38;;
23280;SDS011;11809;56.390;-3.266;2022-09-20T21:01:21;8.00;;;2.40;;
23280;SDS011;11809;56.390;-3.266;2022-09-20T21:03:52;6.25;;;2.72;;
23280;SDS011;11809;56.390;-3.266;2022-09-20T21:06:23;5.67;;;2.63;;
23280;SDS011;11809;56.390;-3.266;2022-09-20T21:08:52;4.63;;;2.35;;
23280;SDS011;11809;56.390;-3.266;2022-09-20T21:11:20;2.97;;;2.28;;
23280;SDS011;11809;56.390;-3.266;2022-09-20T21:13:49;2.88;;;2.40;;
23280;SDS011;11809;56.390;-3.266;2022-09-20T21:16:19;6.72;;;2.50;;
23280;SDS011;11809;56.390;-3.266;2022-09-20T21:18:48;3.70;;;2.65;;
23280;SDS011;11809;56.390;-3.266;2022-09-20T21:26:16;4.90;;;2.10;;
23280;SDS011;11809;56.390;-3.266;2022-09-20T21:28:48;3.83;;;2.25;;
23280;SDS011;11809;56.390;-3.266;2022-09-20T21:31:17;2.40;;;2.00;;
23280;SDS011;11809;56.390;-3.266;2022-09-20T21:33:45;3.55;;;2.00;;
23280;SDS011;11809;56.390;-3.266;2022-09-20T21:36:14;4.20;;;2.30;;
23280;SDS011;11809;56.390;-3.266;2022-09-20T21:38:43;3.92;;;2.35;;
23280;SDS011;11809;56.390;-3.266;2022-09-20T21:41:14;4.32;;;2.30;;
23280;SDS011;11809;56.390;-3.266;2022-09-20T21:46:20;3.13;;;2.58;;
23280;SDS011;11809;56.390;-3.266;2022-09-20T21:48:49;3.35;;;2.30;;
23280;SDS011;11809;56.390;-3.266;2022-09-20T21:51:17;4.43;;;2.30;;
23280;SDS011;11809;56.390;-3.266;2022-09-20T21:53:46;3.75;;;2.20;;
23280;SDS011;11809;56.390;-3.266;2022-09-20T21:56:15;3.03;;;2.03;;
23280;SDS011;11809;56.390;-3.266;2022-09-20T21:58:43;5.78;;;2.42;;